createdAt,value
2023-05-02T00:00:21.286Z,6.93
2023-05-02T00:01:23.637Z,6.91
2023-05-02T00:02:25.995Z,6.90
2023-05-02T00:03:29.113Z,6.90
2023-05-02T00:04:32.125Z,6.88
2023-05-02T00:05:34.873Z,6.87
2023-05-02T00:06:37.370Z,6.87
2023-05-02T00:07:39.692Z,6.86
2023-05-02T00:08:41.736Z,6.85
2023-05-02T00:09:44.028Z,6.84
2023-05-02T00:10:46.227Z,6.82
2023-05-02T00:11:48.324Z,6.81
2023-05-02T00:12:50.339Z,6.80
2023-05-02T00:13:52.335Z,6.79
2023-05-02T00:14:54.456Z,6.78
2023-05-02T00:15:56.580Z,6.78
2023-05-02T00:16:58.792Z,6.77
2023-05-02T00:18:01.066Z,6.77
2023-05-02T00:19:03.393Z,6.75
2023-05-02T00:20:09.962Z,6.76
2023-05-02T00:21:12.240Z,6.75
2023-05-02T00:22:14.450Z,6.74
2023-05-02T00:23:16.586Z,6.72
2023-05-02T00:24:18.803Z,6.70
2023-05-02T00:25:21.453Z,6.68
2023-05-02T00:26:23.874Z,6.67
2023-05-02T00:27:26.137Z,6.65
2023-05-02T00:28:28.349Z,6.65
2023-05-02T00:29:30.624Z,6.65
2023-05-02T00:30:34.714Z,6.63
2023-05-02T00:31:36.942Z,6.62
2023-05-02T00:32:39.096Z,6.61
2023-05-02T00:33:41.120Z,6.61
2023-05-02T00:34:43.312Z,6.60
2023-05-02T00:35:45.522Z,6.59
2023-05-02T00:36:48.043Z,6.59
2023-05-02T00:37:50.092Z,6.57
2023-05-02T00:38:54.968Z,6.55
2023-05-02T00:39:57.214Z,6.54
2023-05-02T00:41:00.291Z,6.55
2023-05-02T00:42:02.429Z,6.55
2023-05-02T00:43:04.682Z,6.53
2023-05-02T00:44:06.690Z,6.52
2023-05-02T00:45:12.140Z,6.52
2023-05-02T00:46:14.767Z,6.51
2023-05-02T00:47:17.069Z,6.49
2023-05-02T00:48:19.252Z,6.48
2023-05-02T00:49:21.450Z,6.47
2023-05-02T00:50:26.667Z,6.46
2023-05-02T00:51:29.271Z,6.47
2023-05-02T00:52:31.510Z,6.47
2023-05-02T00:53:35.516Z,6.45
2023-05-02T00:54:38.062Z,6.45
2023-05-02T00:55:40.280Z,6.45
2023-05-02T00:56:42.485Z,6.45
2023-05-02T00:57:44.761Z,6.42
2023-05-02T00:58:47.326Z,6.43
2023-05-02T00:59:50.772Z,6.41
2023-05-02T01:01:25.003Z,6.41
2023-05-02T01:02:39.797Z,6.39
2023-05-02T01:04:01.961Z,6.37
2023-05-02T01:05:11.042Z,6.37
2023-05-02T01:06:32.399Z,6.35
2023-05-02T01:07:47.745Z,6.34
2023-05-02T01:08:52.959Z,6.32
2023-05-02T01:09:59.289Z,6.32
2023-05-02T01:11:11.893Z,6.30
2023-05-02T01:12:30.195Z,6.29
2023-05-02T01:17:55.409Z,6.26
2023-05-02T01:18:57.718Z,6.20
2023-05-02T01:21:30.643Z,6.25
2023-05-02T01:22:32.657Z,6.13
2023-05-02T01:23:47.439Z,6.12
2023-05-02T01:25:16.522Z,6.11
2023-05-02T01:26:38.165Z,6.09
2023-05-02T01:28:02.127Z,6.08
2023-05-02T01:29:05.579Z,6.07
2023-05-02T01:30:08.646Z,6.06
2023-05-02T01:31:10.711Z,6.06
2023-05-02T01:32:13.097Z,6.05
2023-05-02T01:33:15.979Z,6.04
2023-05-02T01:34:19.540Z,6.03
2023-05-02T01:35:21.655Z,6.02
2023-05-02T01:36:25.611Z,6.01
2023-05-02T01:37:29.734Z,6.00
2023-05-02T01:38:31.906Z,6.00
2023-05-02T01:39:34.008Z,6.00
2023-05-02T01:40:36.140Z,6.01
2023-05-02T01:41:38.426Z,6.01
2023-05-02T01:42:40.731Z,6.00
2023-05-02T01:43:42.946Z,6.00
2023-05-02T01:44:46.288Z,5.99
2023-05-02T01:45:49.161Z,5.99
2023-05-02T01:46:52.645Z,5.99
2023-05-02T01:47:55.517Z,5.99
2023-05-02T01:48:58.643Z,5.98
2023-05-02T01:50:01.496Z,5.97
2023-05-02T01:51:05.151Z,5.98
2023-05-02T01:52:07.999Z,5.96
2023-05-02T01:53:10.704Z,5.96
2023-05-02T01:54:13.373Z,5.94
2023-05-02T01:55:17.177Z,5.94
2023-05-02T01:56:20.625Z,5.94
2023-05-02T01:57:22.765Z,5.94
2023-05-02T01:58:26.716Z,5.93
2023-05-02T01:59:28.917Z,5.93
2023-05-02T02:00:33.400Z,5.92
2023-05-02T02:01:38.377Z,5.92
2023-05-02T02:02:41.228Z,5.91
2023-05-02T02:03:43.216Z,5.90
2023-05-02T02:04:45.729Z,5.89
2023-05-02T02:05:48.327Z,5.89
2023-05-02T02:06:57.632Z,5.87
2023-05-02T02:08:00.522Z,5.87
2023-05-02T02:09:02.791Z,5.86
2023-05-02T02:10:08.528Z,5.86
2023-05-02T02:11:11.900Z,5.86
2023-05-02T02:12:28.658Z,5.87
2023-05-02T02:13:33.484Z,5.86
2023-05-02T02:14:41.262Z,5.84
2023-05-02T02:15:43.494Z,5.82
2023-05-02T02:16:46.188Z,5.82
2023-05-02T02:19:14.188Z,5.91
2023-05-02T02:20:16.602Z,5.80
2023-05-02T02:21:18.712Z,5.81
2023-05-02T02:22:21.323Z,5.79
2023-05-02T02:23:25.322Z,5.80
2023-05-02T02:24:27.506Z,5.80
2023-05-02T02:25:29.880Z,5.79
2023-05-02T02:26:31.885Z,5.80
2023-05-02T02:27:33.952Z,5.80
2023-05-02T02:28:36.205Z,5.79
2023-05-02T02:29:38.304Z,5.78
2023-05-02T02:30:41.560Z,5.78
2023-05-02T02:31:43.700Z,5.78
2023-05-02T02:32:45.913Z,5.78
2023-05-02T02:33:48.247Z,5.77
2023-05-02T02:34:50.983Z,5.78
2023-05-02T02:36:10.182Z,5.77
2023-05-02T02:37:15.312Z,5.77
2023-05-02T02:38:26.996Z,5.76
2023-05-02T02:40:55.694Z,5.84
2023-05-02T02:43:42.929Z,5.82
2023-05-02T02:44:58.133Z,5.72
2023-05-02T02:46:15.904Z,5.72
2023-05-02T02:47:31.142Z,5.72
2023-05-02T02:50:21.920Z,5.84
2023-05-02T02:51:30.687Z,5.75
2023-05-02T02:52:39.653Z,5.76
2023-05-02T02:54:18.969Z,5.76
2023-05-02T02:55:35.655Z,5.76
2023-05-02T02:56:39.716Z,5.77
2023-05-02T02:57:47.823Z,5.78
2023-05-02T02:58:59.409Z,5.78
2023-05-02T03:00:11.238Z,5.79
2023-05-02T03:01:18.315Z,5.79
2023-05-02T03:02:22.696Z,5.80
2023-05-02T03:03:25.303Z,5.80
2023-05-02T03:04:30.203Z,5.80
2023-05-02T03:05:32.720Z,5.82
2023-05-02T03:06:35.138Z,5.82
2023-05-02T03:07:37.786Z,5.84
2023-05-02T03:08:40.632Z,5.84
2023-05-02T03:10:53.209Z,5.98
2023-05-02T03:11:56.122Z,5.89
2023-05-02T03:12:59.533Z,5.89
2023-05-02T03:14:01.804Z,5.91
2023-05-02T03:15:26.352Z,5.93
2023-05-02T03:16:38.434Z,5.95
2023-05-02T03:17:42.844Z,5.95
2023-05-02T03:18:45.664Z,5.97
2023-05-02T03:19:48.284Z,5.99
2023-05-02T03:20:50.632Z,6.01
2023-05-02T03:21:52.823Z,6.02
2023-05-02T03:22:55.362Z,6.03
2023-05-02T03:24:01.631Z,6.05
2023-05-02T03:25:08.406Z,6.07
2023-05-02T03:26:12.043Z,6.10
2023-05-02T03:27:15.999Z,6.11
2023-05-02T03:28:18.311Z,6.14
2023-05-02T03:29:21.097Z,6.16
2023-05-02T03:30:24.486Z,6.17
2023-05-02T03:31:28.006Z,6.20
2023-05-02T03:32:30.748Z,6.23
2023-05-02T03:33:33.749Z,6.26
2023-05-02T03:34:35.983Z,6.28
2023-05-02T03:35:38.487Z,6.31
2023-05-02T03:36:40.862Z,6.33
2023-05-02T03:37:42.963Z,6.37
2023-05-02T03:38:45.244Z,6.39
2023-05-02T03:39:47.920Z,6.44
2023-05-02T03:40:50.169Z,6.47
2023-05-02T03:41:52.288Z,6.50
2023-05-02T03:42:55.616Z,6.53
2023-05-02T03:43:59.810Z,6.56
2023-05-02T03:45:02.918Z,6.60
2023-05-02T03:46:07.162Z,6.64
2023-05-02T03:47:10.017Z,6.68
2023-05-02T03:48:12.276Z,6.71
2023-05-02T03:49:14.951Z,6.74
2023-05-02T03:50:19.894Z,6.78
2023-05-02T03:51:22.628Z,6.82
2023-05-02T03:52:25.588Z,6.85
2023-05-02T03:53:29.554Z,6.90
2023-05-02T03:54:32.492Z,6.93
2023-05-02T03:56:48.026Z,7.13
2023-05-02T03:57:51.877Z,7.07
2023-05-02T03:58:53.992Z,7.12
2023-05-02T03:59:56.757Z,7.16
2023-05-02T04:01:01.548Z,7.21
2023-05-02T04:02:03.913Z,7.25
2023-05-02T04:03:08.462Z,7.30
2023-05-02T04:04:12.664Z,7.35
2023-05-02T04:05:16.996Z,7.41
2023-05-02T04:06:19.871Z,7.45
2023-05-02T04:07:24.011Z,7.49
2023-05-02T04:08:28.096Z,7.55
2023-05-02T04:09:30.175Z,7.60
2023-05-02T04:10:34.246Z,7.67
2023-05-02T04:11:38.485Z,7.73
2023-05-02T04:12:42.545Z,7.81
2023-05-02T04:13:45.397Z,7.87
2023-05-02T04:14:47.518Z,7.94
2023-05-02T04:15:50.215Z,8.01
2023-05-02T04:16:54.527Z,8.05
2023-05-02T04:17:59.140Z,8.12
2023-05-02T04:19:04.914Z,8.19
2023-05-02T04:20:11.553Z,8.25
2023-05-02T04:21:15.706Z,8.34
2023-05-02T04:22:18.448Z,8.42
2023-05-02T04:23:22.633Z,8.50
2023-05-02T04:24:26.685Z,8.58
2023-05-02T04:25:28.795Z,8.63
2023-05-02T04:26:32.850Z,8.70
2023-05-02T04:27:36.805Z,8.79
2023-05-02T04:28:39.031Z,8.86
2023-05-02T04:29:42.328Z,8.91
2023-05-02T04:30:45.576Z,8.98
2023-05-02T04:31:48.676Z,9.07
2023-05-02T04:32:51.551Z,9.15
2023-05-02T04:33:54.077Z,9.25
2023-05-02T04:34:58.202Z,9.34
2023-05-02T04:36:00.315Z,9.42
2023-05-02T04:37:02.800Z,9.47
2023-05-02T04:38:06.667Z,9.53
2023-05-02T04:39:09.699Z,9.59
2023-05-02T04:40:14.299Z,9.65
2023-05-02T04:41:17.647Z,9.72
2023-05-02T04:42:21.804Z,9.78
2023-05-02T04:43:25.845Z,9.83
2023-05-02T04:44:30.146Z,9.89
2023-05-02T04:45:34.988Z,9.94
2023-05-02T04:46:37.437Z,10.00
2023-05-02T04:47:39.972Z,10.03
2023-05-02T04:48:42.782Z,10.07
2023-05-02T04:49:45.128Z,10.12
2023-05-02T04:50:49.595Z,10.19
2023-05-02T04:51:54.626Z,10.23
2023-05-02T04:52:58.059Z,10.23
2023-05-02T04:54:00.276Z,10.30
2023-05-02T04:55:08.030Z,10.33
2023-05-02T04:56:10.675Z,10.37
2023-05-02T04:57:13.930Z,10.40
2023-05-02T04:58:17.970Z,10.44
2023-05-02T04:59:21.925Z,10.48
2023-05-02T05:00:24.470Z,10.50
2023-05-02T05:01:26.693Z,10.53
2023-05-02T05:02:29.918Z,10.57
2023-05-02T05:03:33.178Z,10.60
2023-05-02T05:04:36.431Z,10.61
2023-05-02T05:05:38.817Z,10.65
2023-05-02T05:06:43.865Z,10.70
2023-05-02T05:07:46.644Z,10.74
2023-05-02T05:08:49.930Z,10.76
2023-05-02T05:09:53.430Z,10.81
2023-05-02T05:10:58.143Z,10.85
2023-05-02T05:12:01.175Z,10.89
2023-05-02T05:13:05.431Z,10.95
2023-05-02T05:14:08.568Z,10.97
2023-05-02T05:15:12.568Z,11.01
2023-05-02T05:16:16.788Z,11.05
2023-05-02T05:17:19.194Z,11.08
2023-05-02T05:18:21.488Z,11.11
2023-05-02T05:19:23.785Z,11.14
2023-05-02T05:20:26.682Z,11.17
2023-05-02T05:21:31.065Z,11.20
2023-05-02T05:22:40.661Z,11.22
2023-05-02T05:23:45.978Z,11.24
2023-05-02T05:24:53.606Z,11.26
2023-05-02T05:26:10.089Z,11.30
2023-05-02T05:27:13.308Z,11.33
2023-05-02T05:28:16.535Z,11.35
2023-05-02T05:29:19.564Z,11.36
2023-05-02T05:30:22.947Z,11.36
2023-05-02T05:31:25.074Z,11.38
2023-05-02T05:32:29.070Z,11.39
2023-05-02T05:37:58.006Z,11.46
2023-05-02T05:39:00.931Z,11.46
2023-05-02T05:40:10.067Z,11.49
2023-05-02T05:41:13.243Z,11.49
2023-05-02T05:42:17.172Z,11.52
2023-05-02T05:43:21.201Z,11.53
2023-05-02T05:44:23.391Z,11.59
2023-05-02T05:45:25.403Z,11.64
2023-05-02T05:46:27.665Z,11.67
2023-05-02T05:47:30.486Z,11.70
2023-05-02T05:48:33.759Z,11.73
2023-05-02T05:49:38.927Z,11.76
2023-05-02T05:50:44.234Z,11.81
2023-05-02T05:51:47.168Z,11.84
2023-05-02T05:52:50.438Z,11.87
2023-05-02T05:53:53.035Z,11.93
2023-05-02T05:54:55.322Z,11.99
2023-05-02T05:55:57.610Z,12.05
2023-05-02T05:56:59.998Z,12.09
2023-05-02T05:58:02.681Z,12.14
2023-05-02T05:59:05.706Z,12.19
2023-05-02T06:00:10.524Z,12.23
2023-05-02T06:01:19.506Z,12.27
2023-05-02T06:02:21.525Z,12.30
2023-05-02T06:03:24.085Z,12.35
2023-05-02T06:04:27.461Z,12.39
2023-05-02T06:05:30.268Z,12.45
2023-05-02T06:06:32.979Z,12.52
2023-05-02T06:07:35.333Z,12.57
2023-05-02T06:08:37.359Z,12.61
2023-05-02T06:09:39.845Z,12.64
2023-05-02T06:10:42.051Z,12.67
2023-05-02T06:11:44.274Z,12.73
2023-05-02T06:12:47.838Z,12.75
2023-05-02T06:13:53.324Z,12.80
2023-05-02T06:14:56.199Z,12.85
2023-05-02T06:16:01.746Z,12.90
2023-05-02T06:17:05.064Z,12.97
2023-05-02T06:18:09.062Z,13.01
2023-05-02T06:19:11.359Z,13.06
2023-05-02T06:20:16.613Z,13.09
2023-05-02T06:21:19.271Z,13.13
2023-05-02T06:22:21.814Z,13.18
2023-05-02T06:24:31.812Z,13.35
2023-05-02T06:25:38.708Z,13.30
2023-05-02T06:26:40.849Z,13.32
2023-05-02T06:27:43.077Z,13.37
2023-05-02T06:28:45.189Z,13.44
2023-05-02T06:29:47.422Z,13.47
2023-05-02T06:31:01.354Z,13.53
2023-05-02T06:32:05.171Z,13.55
2023-05-02T06:33:07.388Z,13.61
2023-05-02T06:34:09.720Z,13.64
2023-05-02T06:35:12.775Z,13.69
2023-05-02T06:36:15.273Z,13.74
2023-05-02T06:37:17.370Z,13.81
2023-05-02T06:38:21.290Z,13.86
2023-05-02T06:39:23.723Z,13.90
2023-05-02T06:40:25.787Z,13.96
2023-05-02T06:41:28.054Z,14.02
2023-05-02T06:42:30.160Z,14.07
2023-05-02T06:43:32.453Z,14.11
2023-05-02T06:44:34.605Z,14.15
2023-05-02T06:45:36.805Z,14.16
2023-05-02T06:46:39.218Z,14.22
2023-05-02T06:47:41.729Z,14.23
2023-05-02T06:48:43.772Z,14.27
2023-05-02T06:49:45.844Z,14.30
2023-05-02T06:50:50.740Z,14.30
2023-05-02T06:51:53.003Z,14.32
2023-05-02T06:52:55.190Z,14.35
2023-05-02T06:53:57.726Z,14.34
2023-05-02T06:54:59.628Z,14.29
2023-05-02T06:56:01.820Z,14.29
2023-05-02T06:57:04.179Z,14.28
2023-05-02T06:58:06.378Z,14.30
2023-05-02T06:59:09.716Z,14.31
2023-05-02T07:01:25.598Z,14.39
2023-05-02T07:02:27.995Z,14.33
2023-05-02T07:03:30.030Z,14.34
2023-05-02T07:04:32.276Z,14.35
2023-05-02T07:05:34.746Z,14.40
2023-05-02T07:06:36.886Z,14.45
2023-05-02T07:07:39.238Z,14.48
2023-05-02T07:08:41.153Z,14.50
2023-05-02T07:09:43.212Z,14.52
2023-05-02T07:10:45.619Z,14.58
2023-05-02T07:11:47.612Z,14.63
2023-05-02T07:12:49.896Z,14.64
2023-05-02T07:13:51.993Z,14.66
2023-05-02T07:14:54.737Z,14.64
2023-05-02T07:15:57.093Z,14.64
2023-05-02T07:18:07.207Z,14.75
2023-05-02T07:19:12.077Z,14.66
2023-05-02T07:20:14.265Z,14.70
2023-05-02T07:21:16.492Z,14.73
2023-05-02T07:22:18.789Z,14.71
2023-05-02T07:23:20.980Z,14.77
2023-05-02T07:24:23.278Z,14.74
2023-05-02T07:25:25.436Z,14.70
2023-05-02T07:26:28.053Z,14.72
2023-05-02T07:27:30.208Z,14.74
2023-05-02T07:28:32.369Z,14.78
2023-05-02T07:29:34.514Z,14.81
2023-05-02T07:30:37.078Z,14.85
2023-05-02T07:31:39.284Z,14.93
2023-05-02T07:32:41.651Z,14.99
2023-05-02T07:33:43.847Z,15.02
2023-05-02T07:34:46.048Z,15.07
2023-05-02T07:35:48.198Z,15.12
2023-05-02T07:36:50.872Z,15.17
2023-05-02T07:37:54.127Z,15.18
2023-05-02T07:38:56.451Z,15.19
2023-05-02T07:39:59.240Z,15.24
2023-05-02T07:41:02.599Z,15.27
2023-05-02T07:42:04.719Z,15.30
2023-05-02T07:43:07.891Z,15.31
2023-05-02T07:44:11.536Z,15.34
2023-05-02T07:45:13.867Z,15.37
2023-05-02T07:46:16.384Z,15.42
2023-05-02T07:47:19.012Z,15.37
2023-05-02T07:48:21.027Z,15.38
2023-05-02T07:49:23.261Z,15.38
2023-05-02T07:50:25.894Z,15.42
2023-05-02T07:51:28.847Z,15.46
2023-05-02T07:52:31.137Z,15.50
2023-05-02T07:53:33.200Z,15.55
2023-05-02T07:54:35.520Z,15.57
2023-05-02T07:55:37.696Z,15.60
2023-05-02T07:56:42.253Z,15.62
2023-05-02T07:57:44.531Z,15.62
2023-05-02T07:58:46.553Z,15.62
2023-05-02T07:59:48.665Z,15.61
2023-05-02T08:00:51.756Z,15.65
2023-05-02T08:01:54.042Z,15.67
2023-05-02T08:02:56.265Z,15.70
2023-05-02T08:03:59.471Z,15.71
2023-05-02T08:05:06.055Z,15.75
2023-05-02T08:06:08.858Z,15.78
2023-05-02T08:07:14.031Z,15.80
2023-05-02T08:08:16.551Z,15.81
2023-05-02T08:09:18.801Z,15.86
2023-05-02T08:10:22.298Z,15.93
2023-05-02T08:11:25.523Z,15.92
2023-05-02T08:12:27.664Z,15.98
2023-05-02T08:13:31.133Z,16.04
2023-05-02T08:14:35.334Z,16.10
2023-05-02T08:15:37.606Z,16.13
2023-05-02T08:16:40.368Z,16.13
2023-05-02T08:17:43.515Z,16.14
2023-05-02T08:18:46.614Z,16.19
2023-05-02T08:19:48.883Z,16.19
2023-05-02T08:20:51.140Z,16.19
2023-05-02T08:21:54.234Z,16.17
2023-05-02T08:22:58.018Z,16.17
2023-05-02T08:24:00.592Z,16.17
2023-05-02T08:25:03.075Z,16.20
2023-05-02T08:26:05.947Z,16.19
2023-05-02T08:27:09.344Z,16.21
2023-05-02T08:28:11.560Z,16.25
2023-05-02T08:29:13.838Z,16.24
2023-05-02T08:30:16.740Z,16.26
2023-05-02T08:31:19.178Z,16.25
2023-05-02T08:32:21.805Z,16.31
2023-05-02T08:33:24.113Z,16.33
2023-05-02T08:34:26.849Z,16.30
2023-05-02T08:35:29.138Z,16.35
2023-05-02T08:36:31.408Z,16.31
2023-05-02T08:37:33.510Z,16.31
2023-05-02T08:38:35.804Z,16.34
2023-05-02T08:39:38.011Z,16.36
2023-05-02T08:40:42.709Z,16.40
2023-05-02T08:41:45.395Z,16.42
2023-05-02T08:42:47.482Z,16.41
2023-05-02T08:43:49.631Z,16.43
2023-05-02T08:44:51.852Z,16.42
2023-05-02T08:45:53.988Z,16.42
2023-05-02T08:46:56.316Z,16.44
2023-05-02T08:47:58.455Z,16.49
2023-05-02T08:49:00.865Z,16.54
2023-05-02T08:50:06.523Z,16.55
2023-05-02T08:51:10.484Z,16.64
2023-05-02T08:52:12.614Z,16.71
2023-05-02T08:53:15.279Z,16.75
2023-05-02T08:54:17.785Z,16.80
2023-05-02T08:55:19.961Z,16.85
2023-05-02T08:56:22.659Z,16.90
2023-05-02T08:57:25.100Z,16.92
2023-05-02T08:58:27.010Z,16.87
2023-05-02T08:59:29.202Z,16.89
2023-05-02T09:00:33.219Z,16.88
2023-05-02T09:01:35.513Z,16.90
2023-05-02T09:02:51.137Z,16.95
2023-05-02T09:03:53.359Z,16.99
2023-05-02T09:04:57.309Z,17.03
2023-05-02T09:06:11.399Z,17.03
2023-05-02T09:07:13.497Z,17.01
2023-05-02T09:08:15.470Z,17.02
2023-05-02T09:09:19.103Z,17.02
2023-05-02T09:10:22.812Z,17.03
2023-05-02T09:11:24.898Z,17.05
2023-05-02T09:12:27.652Z,17.03
2023-05-02T09:13:38.266Z,17.05
2023-05-02T09:14:42.992Z,17.01
2023-05-02T09:15:57.720Z,17.02
2023-05-02T09:17:02.039Z,17.02
2023-05-02T09:19:12.790Z,17.17
2023-05-02T09:20:16.105Z,17.15
2023-05-02T09:21:23.959Z,17.17
2023-05-02T09:22:26.264Z,17.21
2023-05-02T09:23:45.243Z,17.25
2023-05-02T09:24:50.937Z,17.28
2023-05-02T09:25:53.281Z,17.33
2023-05-02T09:27:03.314Z,17.37
2023-05-02T09:28:05.615Z,17.37
2023-05-02T09:29:07.796Z,17.36
2023-05-02T09:30:23.836Z,17.35
2023-05-02T09:31:49.617Z,17.34
2023-05-02T09:32:45.246Z,17.35
2023-05-02T09:33:47.859Z,17.35
2023-05-02T09:35:10.530Z,17.38
2023-05-02T09:36:15.569Z,17.42
2023-05-02T09:37:36.357Z,17.49
2023-05-02T09:38:38.564Z,17.55
2023-05-02T09:39:40.967Z,17.60
2023-05-02T09:40:55.868Z,17.64
2023-05-02T09:41:58.242Z,17.68
2023-05-02T09:43:00.602Z,17.66
2023-05-02T09:45:23.130Z,17.68
2023-05-02T09:46:25.433Z,17.58
2023-05-02T09:47:27.684Z,17.59
2023-05-02T09:48:31.051Z,17.66
2023-05-02T09:49:45.950Z,17.73
2023-05-02T09:50:50.201Z,17.79
2023-05-02T09:51:52.402Z,17.84
2023-05-02T09:53:08.341Z,17.87
2023-05-02T09:54:10.442Z,17.91
2023-05-02T09:56:28.940Z,18.02
2023-05-02T09:57:39.259Z,17.90
2023-05-02T09:58:41.509Z,17.88
2023-05-02T09:59:56.824Z,17.90
2023-05-02T10:00:59.058Z,17.90
2023-05-02T10:02:02.663Z,17.86
2023-05-02T10:03:08.622Z,17.89
2023-05-02T10:04:12.705Z,17.89
2023-05-02T10:05:14.900Z,17.91
2023-05-02T10:06:21.935Z,17.93
2023-05-02T10:07:25.193Z,17.92
2023-05-02T10:08:28.204Z,17.90
2023-05-02T10:09:30.466Z,17.91
2023-05-02T10:10:36.215Z,17.94
2023-05-02T10:12:49.725Z,18.09
2023-05-02T10:13:51.894Z,18.06
2023-05-02T10:14:57.241Z,18.08
2023-05-02T10:16:04.406Z,18.13
2023-05-02T10:17:12.156Z,18.17
2023-05-02T10:18:17.308Z,18.22
2023-05-02T10:20:37.230Z,18.40
2023-05-02T10:21:39.288Z,18.35
2023-05-02T10:22:41.468Z,18.35
2023-05-02T10:23:43.799Z,18.38
2023-05-02T10:26:00.100Z,18.53
2023-05-02T10:27:03.556Z,18.46
2023-05-02T10:28:09.471Z,18.45
2023-05-02T10:29:11.650Z,18.43
2023-05-02T10:30:14.064Z,18.37
2023-05-02T10:31:16.086Z,18.38
2023-05-02T10:32:18.954Z,18.37
2023-05-02T10:33:21.757Z,18.29
2023-05-02T10:34:23.711Z,18.24
2023-05-02T10:35:25.866Z,18.19
2023-05-02T10:36:28.413Z,18.23
2023-05-02T10:37:30.566Z,18.26
2023-05-02T10:38:32.592Z,18.29
2023-05-02T10:39:34.723Z,18.30
2023-05-02T10:40:39.906Z,18.35
2023-05-02T10:41:42.315Z,18.34
2023-05-02T10:42:46.110Z,18.36
2023-05-02T10:43:49.201Z,18.35
2023-05-02T10:44:52.092Z,18.35
2023-05-02T10:45:54.331Z,18.39
2023-05-02T10:46:57.175Z,18.40
2023-05-02T10:49:28.029Z,18.49
2023-05-02T10:50:49.765Z,18.45
2023-05-02T10:51:51.847Z,18.47
2023-05-02T10:52:54.171Z,18.47
2023-05-02T10:54:18.268Z,18.49
2023-05-02T10:55:23.517Z,18.43
2023-05-02T10:56:28.516Z,18.39
2023-05-02T10:57:29.900Z,18.41
2023-05-02T10:58:34.883Z,18.47
2023-05-02T10:59:39.619Z,18.53
2023-05-02T11:00:41.869Z,18.59
2023-05-02T11:01:44.228Z,18.62
2023-05-02T11:02:48.292Z,18.68
2023-05-02T11:03:56.122Z,18.71
2023-05-02T11:05:07.767Z,18.74
2023-05-02T11:06:10.294Z,18.76
2023-05-02T11:07:18.603Z,18.77
2023-05-02T11:08:24.421Z,18.75
2023-05-02T11:09:30.899Z,18.72
2023-05-02T11:10:34.194Z,18.71
2023-05-02T11:11:43.510Z,18.71
2023-05-02T11:12:47.926Z,18.69
2023-05-02T11:13:50.672Z,18.71
2023-05-02T11:14:53.141Z,18.75
2023-05-02T11:15:55.175Z,18.77
2023-05-02T11:17:04.713Z,18.78
2023-05-02T11:18:08.130Z,18.80
2023-05-02T11:19:10.711Z,18.85
2023-05-02T11:20:18.408Z,18.84
2023-05-02T11:22:35.519Z,18.88
2023-05-02T11:23:38.055Z,18.79
2023-05-02T11:24:41.572Z,18.80
2023-05-02T11:25:57.131Z,18.79
2023-05-02T11:27:32.394Z,18.79
2023-05-02T11:28:40.333Z,18.73
2023-05-02T11:29:52.334Z,18.68
2023-05-02T11:30:56.170Z,18.69
2023-05-02T11:31:59.544Z,18.71
2023-05-02T11:33:08.910Z,18.72
2023-05-02T11:34:11.099Z,18.73
2023-05-02T11:35:24.730Z,18.76
2023-05-02T11:36:32.263Z,18.76
2023-05-02T11:37:34.568Z,18.77
2023-05-02T11:38:37.787Z,18.78
2023-05-02T11:39:40.023Z,18.83
2023-05-02T11:42:00.093Z,19.04
2023-05-02T11:43:13.960Z,19.00
2023-05-02T11:44:16.197Z,19.02
2023-05-02T11:45:18.801Z,19.00
2023-05-02T11:46:21.404Z,19.01
2023-05-02T11:47:25.115Z,19.04
2023-05-02T11:48:27.458Z,19.07
2023-05-02T11:49:29.428Z,19.09
2023-05-02T11:50:33.207Z,19.11
2023-05-02T11:51:35.567Z,19.12
2023-05-02T11:53:48.848Z,19.23
2023-05-02T11:54:55.494Z,19.14
2023-05-02T11:55:59.249Z,19.14
2023-05-02T11:57:01.928Z,19.16
2023-05-02T11:58:03.949Z,19.12
2023-05-02T11:59:06.109Z,19.10
2023-05-02T12:00:11.679Z,19.10
2023-05-02T12:01:14.754Z,19.15
2023-05-02T12:02:17.666Z,19.18
2023-05-02T12:03:30.343Z,19.17
2023-05-02T12:04:32.839Z,19.19
2023-05-02T12:05:35.023Z,19.21
2023-05-02T12:06:42.482Z,19.23
2023-05-02T12:07:45.553Z,19.26
2023-05-02T12:08:47.884Z,19.28
2023-05-02T12:11:00.688Z,19.51
2023-05-02T12:12:03.294Z,19.45
2023-05-02T12:13:05.667Z,19.48
2023-05-02T12:14:07.882Z,19.51
2023-05-02T12:15:11.854Z,19.55
2023-05-02T12:16:15.344Z,19.59
2023-05-02T12:17:18.048Z,19.62
2023-05-02T12:18:22.766Z,19.63
2023-05-02T12:19:25.093Z,19.61
2023-05-02T12:20:29.742Z,19.63
2023-05-02T12:21:32.733Z,19.64
2023-05-02T12:22:35.232Z,19.63
2023-05-02T12:24:45.137Z,19.73
2023-05-02T12:25:47.423Z,19.64
2023-05-02T12:26:51.121Z,19.66
2023-05-02T12:28:00.778Z,19.67
2023-05-02T12:29:02.993Z,19.69
2023-05-02T12:30:09.048Z,19.72
2023-05-02T12:31:11.481Z,19.74
2023-05-02T12:32:18.104Z,19.79
2023-05-02T12:33:20.208Z,19.82
2023-05-02T12:34:34.247Z,19.85
2023-05-02T12:35:36.391Z,19.85
2023-05-02T12:36:43.635Z,19.87
2023-05-02T12:37:47.298Z,19.88
2023-05-02T12:40:00.854Z,20.01
2023-05-02T12:41:04.378Z,19.95
2023-05-02T12:42:13.139Z,19.95
2023-05-02T12:43:15.685Z,19.93
2023-05-02T12:44:17.685Z,19.90
2023-05-02T12:45:19.801Z,19.89
2023-05-02T12:46:23.401Z,19.90
2023-05-02T12:47:25.583Z,19.91
2023-05-02T12:48:28.104Z,19.95
2023-05-02T12:49:31.856Z,19.98
2023-05-02T12:51:50.937Z,20.14
2023-05-02T12:52:53.122Z,20.07
2023-05-02T12:53:55.128Z,20.10
2023-05-02T12:55:15.400Z,20.14
2023-05-02T12:56:17.699Z,20.17
2023-05-02T12:57:24.267Z,20.19
2023-05-02T12:58:26.661Z,20.23
2023-05-02T12:59:31.961Z,20.26
2023-05-02T13:00:37.752Z,20.30
2023-05-02T13:01:40.206Z,20.31
2023-05-02T13:02:42.560Z,20.33
2023-05-02T13:03:45.277Z,20.35
2023-05-02T13:04:47.297Z,20.38
2023-05-02T13:05:54.323Z,20.40
2023-05-02T13:06:57.025Z,20.47
2023-05-02T13:07:59.564Z,20.51
2023-05-02T13:09:01.932Z,20.56
2023-05-02T13:10:07.672Z,20.59
2023-05-02T13:11:12.206Z,20.61
2023-05-02T13:12:14.299Z,20.61
2023-05-02T13:13:16.482Z,20.61
2023-05-02T13:14:18.837Z,20.62
2023-05-02T13:15:21.147Z,20.61
2023-05-02T13:16:23.463Z,20.57
2023-05-02T13:17:26.655Z,20.58
2023-05-02T13:18:29.382Z,20.58
2023-05-02T13:19:31.750Z,20.62
2023-05-02T13:20:34.265Z,20.65
2023-05-02T13:21:36.379Z,20.65
2023-05-02T13:22:44.253Z,20.67
2023-05-02T13:23:49.187Z,20.69
2023-05-02T13:24:52.330Z,20.73
2023-05-02T13:25:54.626Z,20.72
2023-05-02T13:26:57.331Z,20.67
2023-05-02T13:27:59.342Z,20.66
2023-05-02T13:29:01.591Z,20.63
2023-05-02T13:30:10.210Z,20.64
2023-05-02T13:31:12.626Z,20.61
2023-05-02T13:32:14.775Z,20.63
2023-05-02T13:33:16.691Z,20.62
2023-05-02T13:34:18.797Z,20.64
2023-05-02T13:35:20.983Z,20.64
2023-05-02T13:36:23.593Z,20.66
2023-05-02T13:38:33.476Z,20.85
2023-05-02T13:39:35.610Z,20.79
2023-05-02T13:40:41.806Z,20.81
2023-05-02T13:41:44.441Z,20.82
2023-05-02T13:42:46.530Z,20.86
2023-05-02T13:43:48.951Z,20.89
2023-05-02T13:44:51.383Z,20.92
2023-05-02T13:45:53.695Z,20.95
2023-05-02T13:46:57.088Z,20.95
2023-05-02T13:47:59.464Z,20.97
2023-05-02T13:49:03.241Z,20.98
2023-05-02T13:50:08.031Z,20.99
2023-05-02T13:51:10.145Z,21.01
2023-05-02T13:52:12.417Z,20.95
2023-05-02T13:53:14.989Z,20.90
2023-05-02T13:54:17.113Z,20.85
2023-05-02T13:55:19.361Z,20.86
2023-05-02T13:56:21.862Z,20.82
2023-05-02T13:57:24.156Z,20.79
2023-05-02T13:58:26.305Z,20.75
2023-05-02T14:00:36.461Z,20.83
2023-05-02T14:01:38.537Z,20.76
2023-05-02T14:02:43.540Z,20.82
2023-05-02T14:03:46.304Z,20.88
2023-05-02T14:04:48.858Z,20.92
2023-05-02T14:05:50.986Z,20.98
2023-05-02T14:08:01.335Z,21.16
2023-05-02T14:09:03.872Z,21.09
2023-05-02T14:10:10.326Z,21.08
2023-05-02T14:11:12.594Z,21.06
2023-05-02T14:12:14.646Z,21.04
2023-05-02T14:13:16.770Z,21.05
2023-05-02T14:14:19.153Z,21.04
2023-05-02T14:15:21.144Z,21.06
2023-05-02T14:16:24.308Z,21.07
2023-05-02T14:17:26.742Z,21.10
2023-05-02T14:18:30.387Z,21.09
2023-05-02T14:19:32.684Z,21.12
2023-05-02T14:20:35.056Z,21.13
2023-05-02T14:21:37.182Z,21.14
2023-05-02T14:22:39.425Z,21.14
2023-05-02T14:23:41.541Z,21.16
2023-05-02T14:24:43.762Z,21.17
2023-05-02T14:25:45.778Z,21.17
2023-05-02T14:26:48.404Z,21.16
2023-05-02T14:27:50.476Z,21.16
2023-05-02T14:28:53.296Z,21.15
2023-05-02T14:29:55.621Z,21.06
2023-05-02T14:31:01.123Z,21.04
2023-05-02T14:32:05.334Z,21.01
2023-05-02T14:33:07.720Z,21.02
2023-05-02T14:34:10.305Z,21.03
2023-05-02T14:35:12.504Z,21.05
2023-05-02T14:36:14.881Z,21.07
2023-05-02T14:37:17.110Z,21.09